createdAt,value
2022-12-01T00:00:55.008Z,7.50
2022-12-01T00:06:00.414Z,9.57
2022-12-01T00:11:05.946Z,8.63
2022-12-01T00:16:11.340Z,9.27
2022-12-01T00:21:16.451Z,8.25
2022-12-01T00:26:18.255Z,8.13
2022-12-01T00:31:19.912Z,7.03
2022-12-01T00:36:22.084Z,6.22
2022-12-01T00:41:24.674Z,6.93
2022-12-01T00:46:26.159Z,8.50
2022-12-01T00:51:27.623Z,6.80
2022-12-01T00:56:29.085Z,7.70
2022-12-01T01:01:30.658Z,5.40
2022-12-01T01:06:32.280Z,7.93
2022-12-01T01:11:33.687Z,8.55
2022-12-01T01:16:35.267Z,7.10
2022-12-01T01:21:36.780Z,7.90
2022-12-01T01:26:38.216Z,8.32
2022-12-01T01:31:39.699Z,5.18
2022-12-01T01:36:41.161Z,6.50
2022-12-01T01:41:42.601Z,6.85
2022-12-01T01:46:44.017Z,5.28
2022-12-01T01:51:47.861Z,6.90
2022-12-01T01:56:50.900Z,4.80
2022-12-01T02:01:56.213Z,6.88
2022-12-01T02:06:57.660Z,5.32
2022-12-01T02:12:14.221Z,6.72
2022-12-01T02:17:38.827Z,5.82
2022-12-01T02:22:54.147Z,3.88
2022-12-01T02:28:07.914Z,7.70
2022-12-01T02:33:17.457Z,6.43
2022-12-01T02:38:28.566Z,7.90
2022-12-01T02:43:32.331Z,3.40
2022-12-01T02:48:34.670Z,5.70
2022-12-01T02:53:36.325Z,5.85
2022-12-01T02:58:37.781Z,4.57
2022-12-01T03:03:57.096Z,6.57
2022-12-01T03:09:15.758Z,5.22
2022-12-01T03:14:25.677Z,3.97
2022-12-01T03:19:30.501Z,4.05
2022-12-01T03:24:33.151Z,4.05
2022-12-01T03:29:38.657Z,5.63
2022-12-01T03:34:45.400Z,5.43
2022-12-01T03:39:47.952Z,4.03
2022-12-01T03:44:51.932Z,7.78
2022-12-01T03:49:53.603Z,3.03
2022-12-01T03:55:01.540Z,4.32
2022-12-01T04:00:04.453Z,3.95
2022-12-01T04:05:06.388Z,3.75
2022-12-01T04:10:08.120Z,4.50
2022-12-01T04:15:12.341Z,2.85
2022-12-01T04:20:14.544Z,4.10
2022-12-01T04:25:15.992Z,3.92
2022-12-01T04:30:17.485Z,3.90
2022-12-01T04:35:18.967Z,4.60
2022-12-01T04:40:21.684Z,6.50
2022-12-01T04:45:23.135Z,4.72
2022-12-01T04:50:24.553Z,6.40
2022-12-01T04:55:26.025Z,4.88
2022-12-01T05:00:27.482Z,5.00
2022-12-01T05:05:29.329Z,6.20
2022-12-01T05:10:30.998Z,4.35
2022-12-01T05:15:32.495Z,5.28
2022-12-01T05:20:52.479Z,6.60
2022-12-01T05:25:54.092Z,5.20
2022-12-01T05:30:55.844Z,6.22
2022-12-01T05:35:57.311Z,5.35
2022-12-01T05:40:58.752Z,3.75
2022-12-01T05:46:00.253Z,5.93
2022-12-01T05:51:07.696Z,4.45
2022-12-01T05:56:09.429Z,4.40
2022-12-01T06:01:10.912Z,5.32
2022-12-01T06:06:12.372Z,3.92
2022-12-01T06:11:13.836Z,5.63
2022-12-01T06:16:15.286Z,4.38
2022-12-01T06:21:16.837Z,6.90
2022-12-01T06:26:18.283Z,6.15
2022-12-01T06:31:19.703Z,5.25
2022-12-01T06:36:21.169Z,4.70
2022-12-01T06:41:22.654Z,4.28
2022-12-01T06:46:24.259Z,3.08
2022-12-01T06:51:25.899Z,3.92
2022-12-01T06:56:27.341Z,4.78
2022-12-01T07:01:28.960Z,4.63
2022-12-01T07:06:31.270Z,7.70
2022-12-01T07:11:36.103Z,4.10
2022-12-01T07:16:37.582Z,5.88
2022-12-01T07:21:39.069Z,5.82
2022-12-01T07:26:41.279Z,6.22
2022-12-01T07:31:42.831Z,6.00
2022-12-01T07:36:44.260Z,6.15
2022-12-01T07:41:45.683Z,4.53
2022-12-01T07:46:47.170Z,3.90
2022-12-01T07:51:48.657Z,5.05
2022-12-01T07:56:50.216Z,5.25
2022-12-01T08:01:51.779Z,6.35
2022-12-01T08:06:53.271Z,7.80
2022-12-01T08:11:54.693Z,10.40
2022-12-01T08:16:56.108Z,6.40
2022-12-01T08:21:57.533Z,6.90
2022-12-01T08:27:00.124Z,5.80
2022-12-01T08:32:01.819Z,6.60
2022-12-01T08:37:03.249Z,6.20
2022-12-01T08:42:04.700Z,5.70
2022-12-01T08:47:06.324Z,5.50
2022-12-01T08:52:07.753Z,7.22
2022-12-01T08:57:09.187Z,5.18
2022-12-01T09:02:14.446Z,10.15
2022-12-01T09:07:19.144Z,9.95
2022-12-01T09:12:24.333Z,6.72
2022-12-01T09:17:25.763Z,5.80
2022-12-01T09:22:27.248Z,5.75
2022-12-01T09:27:28.685Z,6.53
2022-12-01T09:32:30.109Z,6.22
2022-12-01T09:37:31.561Z,7.25
2022-12-01T09:42:35.518Z,5.15
2022-12-01T09:47:37.730Z,4.30
2022-12-01T09:52:41.074Z,7.13
2022-12-01T09:57:43.027Z,3.95
2022-12-01T10:02:50.241Z,4.28
2022-12-01T10:08:02.188Z,5.50
2022-12-01T10:13:08.639Z,6.68
2022-12-01T10:18:18.554Z,6.70
2022-12-01T10:23:30.732Z,8.02
2022-12-01T10:28:48.542Z,4.80
2022-12-01T10:34:01.453Z,7.00
2022-12-01T10:39:05.196Z,6.13
2022-12-01T10:44:07.312Z,4.50
2022-12-01T10:49:10.089Z,4.95
2022-12-01T10:54:11.774Z,6.40
2022-12-01T10:59:21.420Z,4.82
2022-12-01T11:04:28.665Z,4.88
2022-12-01T11:09:30.501Z,5.97
2022-12-01T11:14:49.553Z,4.47
2022-12-01T11:19:51.304Z,5.28
2022-12-01T11:24:53.000Z,4.53
2022-12-01T11:29:59.935Z,7.43
2022-12-01T11:35:13.592Z,5.85
2022-12-01T11:40:24.764Z,6.90
2022-12-01T11:45:33.476Z,6.75
2022-12-01T11:50:36.943Z,6.10
2022-12-01T11:55:38.423Z,5.88
2022-12-01T12:00:47.950Z,8.55
2022-12-01T12:05:49.380Z,7.20
2022-12-01T12:10:50.845Z,9.13
2022-12-01T12:15:52.402Z,7.60
2022-12-01T12:20:53.840Z,6.53
2022-12-01T12:25:55.350Z,7.95
2022-12-01T12:31:15.290Z,12.05
2022-12-01T12:36:35.440Z,10.93
2022-12-01T12:41:43.244Z,8.38
2022-12-01T12:46:59.693Z,12.45
2022-12-01T12:52:08.891Z,7.57
2022-12-01T12:57:23.407Z,6.77
2022-12-01T13:02:33.137Z,9.25
2022-12-01T13:07:38.482Z,8.23
2022-12-01T13:12:43.599Z,5.03
2022-12-01T13:17:48.352Z,6.40
2022-12-01T13:22:50.118Z,5.13
2022-12-01T13:27:52.382Z,6.85
2022-12-01T13:33:01.548Z,5.85
2022-12-01T13:38:21.795Z,6.20
2022-12-01T13:43:23.350Z,4.05
2022-12-01T13:48:29.557Z,4.95
2022-12-01T13:53:38.193Z,4.32
2022-12-01T13:58:49.758Z,3.90
2022-12-01T14:04:03.709Z,3.45
2022-12-01T14:09:06.740Z,3.72
2022-12-01T14:14:11.672Z,5.50
2022-12-01T14:19:31.873Z,6.35
2022-12-01T14:24:43.749Z,4.25
2022-12-01T14:29:45.193Z,4.30
2022-12-01T14:34:50.848Z,3.47
2022-12-01T14:39:56.817Z,4.22
2022-12-01T14:44:58.641Z,5.38
2022-12-01T14:50:02.747Z,6.88
2022-12-01T14:55:07.273Z,5.88
2022-12-01T15:00:11.098Z,5.03
2022-12-01T15:05:12.598Z,4.82
2022-12-01T15:10:35.348Z,4.18
2022-12-01T15:15:37.799Z,4.88
2022-12-01T15:20:43.571Z,5.68
2022-12-01T15:25:47.904Z,3.03
2022-12-01T15:30:53.754Z,4.95
2022-12-01T15:35:55.727Z,5.00
2022-12-01T15:46:26.239Z,4.95
2022-12-01T15:51:27.895Z,5.00
2022-12-01T15:56:34.240Z,4.38
2022-12-01T16:01:36.293Z,5.65
2022-12-01T16:06:38.264Z,8.35
2022-12-01T16:11:40.281Z,4.60
2022-12-01T16:16:43.325Z,3.88
2022-12-01T16:21:52.821Z,4.15
2022-12-01T16:27:04.900Z,6.80
2022-12-01T16:32:20.220Z,5.03
2022-12-01T16:37:22.364Z,5.72
2022-12-01T16:42:23.915Z,6.45
2022-12-01T16:47:25.706Z,4.85
2022-12-01T16:52:44.740Z,5.72
2022-12-01T16:57:46.913Z,7.67
2022-12-01T17:02:48.488Z,5.47
2022-12-01T17:07:50.365Z,7.45
2022-12-01T17:12:52.063Z,8.52
2022-12-01T17:17:53.578Z,5.32
2022-12-01T17:22:55.025Z,7.70
2022-12-01T17:27:56.593Z,6.72
2022-12-01T17:32:58.559Z,7.78
2022-12-01T17:38:00.008Z,8.45
2022-12-01T17:43:01.688Z,9.63
2022-12-01T17:48:03.174Z,8.75
2022-12-01T17:53:04.639Z,8.90
2022-12-01T17:58:06.614Z,11.07
2022-12-01T18:03:08.216Z,6.57
2022-12-01T18:08:09.881Z,6.38
2022-12-01T18:13:11.562Z,6.53
2022-12-01T18:18:13.054Z,5.20
2022-12-01T18:23:14.601Z,5.53
2022-12-01T18:28:16.023Z,10.10
2022-12-01T18:33:17.984Z,18.95
2022-12-01T18:38:19.440Z,21.88
2022-12-01T18:43:20.886Z,18.20
2022-12-01T18:48:22.488Z,12.52
2022-12-01T18:53:23.929Z,10.30
2022-12-01T18:58:25.351Z,8.80
2022-12-01T19:03:30.386Z,7.72
2022-12-01T19:08:31.791Z,6.65
2022-12-01T19:13:33.534Z,7.68
2022-12-01T19:18:35.536Z,12.27
2022-12-01T19:23:37.028Z,5.93
2022-12-01T19:28:38.635Z,6.78
2022-12-01T19:33:40.192Z,8.18
2022-12-01T19:38:41.683Z,7.78
2022-12-01T19:43:43.360Z,11.52
2022-12-01T19:48:45.134Z,7.07
2022-12-01T19:53:46.739Z,6.45
2022-12-01T19:58:48.484Z,9.13
2022-12-01T20:03:51.447Z,6.03
2022-12-01T20:08:54.212Z,8.25
2022-12-01T20:13:55.755Z,11.15
2022-12-01T20:18:59.365Z,6.45
2022-12-01T20:24:04.849Z,8.90
2022-12-01T20:29:08.612Z,9.15
2022-12-01T20:34:12.005Z,10.73
2022-12-01T20:39:13.640Z,11.05
2022-12-01T20:44:16.125Z,13.60
2022-12-01T20:49:18.029Z,10.02
2022-12-01T20:54:27.758Z,7.30
2022-12-01T20:59:30.304Z,9.50
2022-12-01T21:04:31.841Z,14.95
2022-12-01T21:09:33.315Z,15.88
2022-12-01T21:14:37.675Z,15.23
2022-12-01T21:19:43.969Z,15.13
2022-12-01T21:24:46.738Z,11.07
2022-12-01T21:29:48.960Z,20.45
2022-12-01T21:34:50.753Z,25.65
2022-12-01T21:39:53.189Z,21.13
2022-12-01T21:44:55.925Z,18.30
2022-12-01T21:49:58.084Z,13.70
2022-12-01T21:55:14.735Z,16.70
2022-12-01T22:00:28.151Z,11.38
2022-12-01T22:05:38.296Z,8.23
2022-12-01T22:15:41.683Z,7.13
2022-12-01T22:20:43.173Z,8.05
2022-12-01T22:25:45.885Z,8.38
2022-12-01T22:30:47.652Z,7.03
2022-12-01T22:35:50.115Z,8.13
2022-12-01T22:40:57.789Z,11.98
2022-12-01T22:46:02.071Z,8.65
2022-12-01T22:51:23.816Z,9.98
2022-12-01T22:56:39.438Z,8.68
2022-12-01T23:02:01.250Z,9.05
2022-12-01T23:07:10.279Z,9.70
2022-12-01T23:12:11.681Z,12.10
2022-12-01T23:17:14.838Z,7.78
2022-12-01T23:22:16.793Z,9.18
2022-12-01T23:27:18.231Z,6.88
2022-12-01T23:32:19.650Z,8.20
2022-12-01T23:37:28.973Z,10.23
2022-12-01T23:42:30.864Z,6.17
2022-12-01T23:47:32.286Z,8.10
2022-12-01T23:52:35.139Z,9.38
2022-12-01T23:57:37.226Z,7.50
